Time;durP1;ratioP1;P1;durP2;ratioP2;P2;SDS_P1;SDS_P2;PMS_P1;PMS_P2;Temp;Humidity;BMP_temperature;BMP_pressure;BME280_temperature;BME280_humidity;BME280_pressure;Samples;Min_cycle;Max_cycle;Signal;HPM_P1;HPM_P2
2023/03/09 00:01:29;;;;;;;;;;;;;;;0.42;100.00;99143.03;5045843;28;19923;-59
2023/03/09 00:03:54;;;;;;;;;;;;;;;0.42;100.00;99135.44;5045062;28;19947;-59
2023/03/09 00:06:20;;;;;;;;;;;;;;;0.41;100.00;99141.31;5046048;28;20370;-59
2023/03/09 00:08:46;;;;;;;;;;;;;;;0.41;100.00;99118.56;5045312;28;19924;-59
2023/03/09 00:11:12;;;;;;;;;;;;;;;0.42;100.00;99107.63;5047654;28;20381;-59
2023/03/09 00:13:37;;;;;;;;;;;;;;;0.42;100.00;99137.13;5049435;28;19962;-59
2023/03/09 00:16:16;;;;;;;;;;;;;;;0.41;100.00;99141.31;5045238;28;20008;-59
2023/03/09 00:18:42;;;;;;;;;;;;;;;0.41;100.00;99131.19;5027026;28;20047;-59
2023/03/09 00:21:07;;;;;;;;;;;;;;;0.39;100.00;99130.28;5045383;28;20381;-59
2023/03/09 00:23:32;;;;;;;;;;;;;;;0.40;100.00;99138.72;5046553;28;19924;-59
2023/03/09 00:26:05;;;;;;;;;;;;;;;0.39;100.00;99147.97;5045999;28;19932;-59
2023/03/09 00:28:30;;;;;;;;;;;;;;;0.39;100.00;99153.03;5044958;28;19920;-60
2023/03/09 00:31:00;;;;;;;;;;;;;;;0.39;100.00;99157.25;5045664;28;20309;-62
2023/03/09 00:33:25;;;;;;;;;;;;;;;0.38;100.00;99163.97;5046401;28;20393;-59
2023/03/09 00:35:50;;;;;;;;;;;;;;;0.40;100.00;99166.53;5045312;28;19921;-59
2023/03/09 00:38:15;;;;;;;;;;;;;;;0.40;100.00;99179.19;5046430;28;19920;-59
2023/03/09 00:40:41;;;;;;;;;;;;;;;0.41;100.00;99184.31;5045993;28;19929;-59
2023/03/09 00:43:06;;;;;;;;;;;;;;;0.42;100.00;99182.63;5046389;28;20358;-59
2023/03/09 00:45:31;;;;;;;;;;;;;;;0.42;100.00;99178.44;5043891;28;19964;-59
2023/03/09 00:47:56;;;;;;;;;;;;;;;0.41;100.00;99176.72;5044134;28;19929;-59
2023/03/09 00:50:22;;;;;;;;;;;;;;;0.43;100.00;99191.97;5046486;28;20062;-57
2023/03/09 00:52:47;;;;;;;;;;;;;;;0.41;100.00;99193.56;5046344;28;19974;-57
2023/03/09 00:55:12;;;;;;;;;;;;;;;0.42;100.00;99196.13;5045631;28;19933;-58
2023/03/09 00:57:38;;;;;;;;;;;;;;;0.44;100.00;99207.19;5048453;28;19923;-57
2023/03/09 01:00:05;;;;;;;;;;;;;;;0.46;100.00;99212.31;5044608;28;19959;-56
2023/03/09 01:02:30;;;;;;;;;;;;;;;0.47;100.00;99211.50;5046653;28;19936;-57
2023/03/09 01:04:57;;;;;;;;;;;;;;;0.51;100.00;99213.38;5045526;28;19920;-57
2023/03/09 01:07:22;;;;;;;;;;;;;;;0.49;100.00;99220.03;5054162;28;20451;-57
2023/03/09 01:09:47;;;;;;;;;;;;;;;0.50;100.00;99229.34;5048378;28;19924;-58
2023/03/09 01:12:13;;;;;;;;;;;;;;;0.49;100.00;99233.56;5050298;28;19936;-56
2023/03/09 01:14:38;;;;;;;;;;;;;;;0.50;100.00;99235.28;5033012;28;19929;-60
2023/03/09 01:17:03;;;;;;;;;;;;;;;0.51;100.00;99248.78;5050217;28;19921;-57
2023/03/09 01:19:28;;;;;;;;;;;;;;;0.52;100.00;99251.38;5052381;28;19947;-57
2023/03/09 01:21:54;;;;;;;;;;;;;;;0.54;100.00;99247.22;5050409;28;19939;-58
2023/03/09 01:24:19;;;;;;;;;;;;;;;0.56;100.00;99244.78;5050720;28;19924;-57
2023/03/09 01:26:44;;;;;;;;;;;;;;;0.56;100.00;99247.31;5048890;28;20319;-57
2023/03/09 01:29:10;;;;;;;;;;;;;;;0.56;100.00;99242.25;5050051;28;20332;-57
2023/03/09 01:31:35;;;;;;;;;;;;;;;0.58;100.00;99249.91;5048909;28;19964;-58
2023/03/09 01:34:00;;;;;;;;;;;;;;;0.56;100.00;99257.44;5051333;28;19932;-57
2023/03/09 01:36:25;;;;;;;;;;;;;;;0.56;100.00;99269.22;5048761;28;19924;-57
2023/03/09 01:38:51;;;;;;;;;;;;;;;0.57;100.00;99283.59;5045561;28;20027;-57
2023/03/09 01:41:17;;;;;;;;;;;;;;;0.57;100.00;99283.59;5045442;28;20340;-57
2023/03/09 01:43:43;;;;;;;;;;;;;;;0.61;100.00;99282.88;5044603;28;19951;-58
2023/03/09 01:46:27;;;;;;;;;;;;;;;0.62;100.00;99282.13;5046036;28;20381;-57
2023/03/09 01:49:01;;;;;;;;;;;;;;;0.62;100.00;99287.19;5042322;28;19943;-57
2023/03/09 01:51:29;;;;;;;;;;;;;;;0.62;100.00;99280.44;5043827;28;19927;-57
2023/03/09 01:53:55;;;;;;;;;;;;;;;0.63;100.00;99277.13;5045160;28;19917;-57
2023/03/09 01:56:21;;;;;;;;;;;;;;;0.64;100.00;99290.63;5042944;28;19927;-58
2023/03/09 01:58:48;;;;;;;;;;;;;;;0.64;100.00;99300.75;5046996;28;20411;-58
2023/03/09 02:01:13;;;;;;;;;;;;;;;0.66;100.00;99304.19;5044305;28;20011;-57
2023/03/09 02:03:41;;;;;;;;;;;;;;;0.67;100.00;99295.81;5045076;28;20298;-57
2023/03/09 02:06:12;;;;;;;;;;;;;;;0.66;100.00;99305.06;5044129;28;20271;-58
2023/03/09 02:08:43;;;;;;;;;;;;;;;0.67;100.00;99311.00;5046284;28;20377;-57
2023/03/09 02:11:11;;;;;;;;;;;;;;;0.67;100.00;99305.94;5043800;28;19927;-57
2023/03/09 02:13:38;;;;;;;;;;;;;;;0.68;100.00;99317.78;5045245;28;20373;-58
2023/03/09 02:16:04;;;;;;;;;;;;;;;0.68;100.00;99313.59;5044802;28;19924;-61
2023/03/09 02:18:29;;;;;;;;;;;;;;;0.71;100.00;99310.31;5047551;28;19947;-58
2023/03/09 02:21:02;;;;;;;;;;;;;;;0.72;100.00;99309.50;5045461;28;19917;-57
2023/03/09 02:23:36;;;;;;;;;;;;;;;0.72;100.00;99312.03;5045634;28;19917;-57
2023/03/09 02:26:11;;;;;;;;;;;;;;;0.71;100.00;99317.91;5045888;28;20372;-58
2023/03/09 02:28:37;;;;;;;;;;;;;;;0.71;100.00;99339.00;5049126;28;20432;-58
2023/03/09 02:31:02;;;;;;;;;;;;;;;0.72;100.00;99347.44;5046364;28;20044;-57
2023/03/09 02:33:28;;;;;;;;;;;;;;;0.72;100.00;99349.97;5045487;28;19943;-58
2023/03/09 02:35:55;;;;;;;;;;;;;;;0.72;100.00;99332.28;5045648;28;20015;-56
2023/03/09 02:38:20;;;;;;;;;;;;;;;0.70;100.00;99324.63;5045994;28;20417;-62
2023/03/09 02:40:47;;;;;;;;;;;;;;;0.69;100.00;99324.56;5047153;28;19960;-58
2023/03/09 02:43:12;;;;;;;;;;;;;;;0.68;100.00;99330.44;5047678;28;19944;-57
2023/03/09 02:45:38;;;;;;;;;;;;;;;0.68;100.00;99338.03;5045655;28;20377;-58
2023/03/09 02:48:03;;;;;;;;;;;;;;;0.68;100.00;99349.00;5051648;28;19921;-57
2023/03/09 02:50:28;;;;;;;;;;;;;;;0.69;100.00;99345.66;5047195;28;19985;-57
2023/03/09 02:52:54;;;;;;;;;;;;;;;0.71;100.00;99349.13;5044923;28;19928;-58
2023/03/09 02:55:19;;;;;;;;;;;;;;;0.71;100.00;99348.25;5042532;28;19928;-57
2023/03/09 02:57:44;;;;;;;;;;;;;;;0.70;100.00;99346.53;5045368;28;19921;-57
2023/03/09 03:00:11;;;;;;;;;;;;;;;0.68;100.00;99350.69;5045265;28;19943;-58
2023/03/09 03:02:37;;;;;;;;;;;;;;;0.68;100.00;99353.19;5046276;28;19916;-58
2023/03/09 03:05:03;;;;;;;;;;;;;;;0.68;100.00;99360.78;5043140;28;19968;-58
2023/03/09 03:07:28;;;;;;;;;;;;;;;0.67;100.00;99351.47;5046517;28;19971;-58
2023/03/09 03:09:53;;;;;;;;;;;;;;;0.68;100.00;99363.31;5045703;28;20427;-57
2023/03/09 03:12:19;;;;;;;;;;;;;;;0.68;100.00;99346.47;5044636;28;20347;-57
2023/03/09 03:14:44;;;;;;;;;;;;;;;0.68;100.00;99348.16;5046529;28;19917;-57
2023/03/09 03:17:10;;;;;;;;;;;;;;;0.69;100.00;99354.94;5044778;28;19927;-57
2023/03/09 03:19:35;;;;;;;;;;;;;;;0.69;100.00;99350.72;5045186;28;19964;-58
2023/03/09 03:22:00;;;;;;;;;;;;;;;0.72;100.00;99360.09;5043775;28;19921;-57
2023/03/09 03:24:26;;;;;;;;;;;;;;;0.69;100.00;99367.59;5046278;28;19928;-58
2023/03/09 03:26:51;;;;;;;;;;;;;;;0.68;100.00;99360.78;5045089;28;19920;-58
2023/03/09 03:29:17;;;;;;;;;;;;;;;0.67;100.00;99371.72;5045095;28;20301;-57
2023/03/09 03:31:42;;;;;;;;;;;;;;;0.66;100.00;99375.03;5046177;28;20367;-58
2023/03/09 03:34:08;;;;;;;;;;;;;;;0.66;100.00;99390.19;5046115;28;20697;-58
2023/03/09 03:36:33;;;;;;;;;;;;;;;0.64;100.00;99394.34;5044341;28;19921;-58
2023/03/09 03:38:58;;;;;;;;;;;;;;;0.66;100.00;99392.72;5045352;28;19920;-57
2023/03/09 03:41:23;;;;;;;;;;;;;;;0.67;100.00;99395.34;5045840;28;19921;-58
2023/03/09 03:43:49;;;;;;;;;;;;;;;0.66;100.00;99385.13;5045173;28;19924;-57
2023/03/09 03:46:14;;;;;;;;;;;;;;;0.65;100.00;99401.97;5037944;28;19927;-57
2023/03/09 03:48:39;;;;;;;;;;;;;;;0.65;100.00;99411.25;5040484;28;19960;-58
2023/03/09 03:51:05;;;;;;;;;;;;;;;0.64;100.00;99412.03;5041333;28;19932;-58
2023/03/09 03:53:30;;;;;;;;;;;;;;;0.65;100.00;99418.81;5045740;28;19925;-57
2023/03/09 03:55:56;;;;;;;;;;;;;;;0.63;100.00;99423.81;5044850;28;19932;-59
2023/03/09 03:58:21;;;;;;;;;;;;;;;0.64;100.00;99429.75;5044022;28;20035;-57
2023/03/09 04:00:47;;;;;;;;;;;;;;;0.67;100.00;99429.91;5047403;28;20313;-57
2023/03/09 04:03:12;;;;;;;;;;;;;;;0.65;100.00;99423.88;5044133;28;20614;-57
2023/03/09 04:05:38;;;;;;;;;;;;;;;0.67;100.00;99430.75;5044821;28;20290;-58
2023/03/09 04:08:03;;;;;;;;;;;;;;;0.67;100.00;99435.81;5042031;28;19925;-57
2023/03/09 04:10:29;;;;;;;;;;;;;;;0.70;100.00;99440.13;5044964;28;20188;-57
2023/03/09 04:12:54;;;;;;;;;;;;;;;0.71;100.00;99439.34;5046531;28;19916;-58
2023/03/09 04:15:19;;;;;;;;;;;;;;;0.72;100.00;99461.31;5047034;28;20317;-58
2023/03/09 04:17:47;;;;;;;;;;;;;;;0.71;100.00;99473.09;5047452;28;19968;-58
2023/03/09 04:20:12;;;;;;;;;;;;;;;0.72;100.00;99474.81;5045696;28;20412;-58
2023/03/09 04:22:37;;;;;;;;;;;;;;;0.71;100.00;99464.63;5047104;28;20244;-57
2023/03/09 04:25:03;;;;;;;;;;;;;;;0.71;100.00;99462.97;5047498;28;20357;-57
2023/03/09 04:27:28;;;;;;;;;;;;;;;0.70;100.00;99467.97;5046162;28;20356;-58
2023/03/09 04:29:53;;;;;;;;;;;;;;;0.71;100.00;99474.75;5048627;28;19924;-57
2023/03/09 04:32:18;;;;;;;;;;;;;;;0.71;100.00;99474.75;5050718;28;19929;-58
2023/03/09 04:34:44;;;;;;;;;;;;;;;0.71;100.00;99469.69;5049873;28;20362;-59
2023/03/09 04:37:10;;;;;;;;;;;;;;;0.71;100.00;99462.09;5049862;28;20004;-57
2023/03/09 04:39:36;;;;;;;;;;;;;;;0.71;100.00;99465.50;5048683;28;20369;-57
2023/03/09 04:42:01;;;;;;;;;;;;;;;0.71;100.00;99459.56;5048599;28;19956;-58
2023/03/09 04:44:27;;;;;;;;;;;;;;;0.71;100.00;99468.03;5048771;28;20352;-58
2023/03/09 04:46:52;;;;;;;;;;;;;;;0.72;100.00;99476.47;5051826;28;20429;-58
2023/03/09 04:49:17;;;;;;;;;;;;;;;0.73;100.00;99490.91;5047055;28;19920;-57
2023/03/09 04:51:42;;;;;;;;;;;;;;;0.72;100.00;99486.59;5047176;28;20023;-58
2023/03/09 04:54:08;;;;;;;;;;;;;;;0.71;100.00;99505.97;5048322;28;19968;-57
2023/03/09 04:56:33;;;;;;;;;;;;;;;0.72;100.00;99509.38;5051730;28;19925;-57
2023/03/09 04:58:58;;;;;;;;;;;;;;;0.72;100.00;99511.91;5048555;28;19925;-58
2023/03/09 05:01:23;;;;;;;;;;;;;;;0.72;100.00;99506.84;5047673;28;19921;-58
2023/03/09 05:03:49;;;;;;;;;;;;;;;0.72;100.00;99511.91;5049851;28;19960;-57
2023/03/09 05:06:14;;;;;;;;;;;;;;;0.72;100.00;99506.84;5048517;28;19971;-58
2023/03/09 05:08:39;;;;;;;;;;;;;;;0.73;100.00;99513.66;5047918;28;19921;-58
2023/03/09 05:11:04;;;;;;;;;;;;;;;0.73;100.00;99524.66;5045576;28;19945;-57
2023/03/09 05:13:30;;;;;;;;;;;;;;;0.74;100.00;99521.31;5049046;28;19925;-58
2023/03/09 05:15:55;;;;;;;;;;;;;;;0.75;100.00;99522.19;5050411;28;19917;-58
2023/03/09 05:18:20;;;;;;;;;;;;;;;0.76;100.00;99526.44;5047767;28;19983;-61
2023/03/09 05:20:45;;;;;;;;;;;;;;;0.77;100.00;99528.16;5051104;28;19943;-58
2023/03/09 05:23:11;;;;;;;;;;;;;;;0.75;100.00;99532.28;5047917;28;19921;-58
2023/03/09 05:25:36;;;;;;;;;;;;;;;0.75;100.00;99539.88;5048178;28;19924;-58
2023/03/09 05:28:01;;;;;;;;;;;;;;;0.76;100.00;99534.88;5049379;28;19921;-57
2023/03/09 05:30:27;;;;;;;;;;;;;;;0.76;100.00;99537.41;5050145;28;20370;-58
2023/03/09 05:32:52;;;;;;;;;;;;;;;0.75;100.00;99538.22;5047734;28;20309;-58
2023/03/09 05:35:18;;;;;;;;;;;;;;;0.74;100.00;99540.69;5049125;28;19921;-57
2023/03/09 05:37:44;;;;;;;;;;;;;;;0.75;100.00;99544.94;5047230;28;19924;-57
2023/03/09 05:40:10;;;;;;;;;;;;;;;0.76;100.00;99531.50;5051598;28;19927;-57
2023/03/09 05:42:35;;;;;;;;;;;;;;;0.76;100.00;99524.78;5048605;28;20336;-57
2023/03/09 05:45:02;;;;;;;;;;;;;;;0.75;100.00;99529.78;5047383;28;19979;-58
2023/03/09 05:47:27;;;;;;;;;;;;;;;0.75;100.00;99527.25;5048133;28;19927;-57
2023/03/09 05:49:52;;;;;;;;;;;;;;;0.75;100.00;99532.28;5048376;28;19932;-57
2023/03/09 05:52:18;;;;;;;;;;;;;;;0.75;100.00;99528.09;5049872;28;19928;-59
2023/03/09 05:54:43;;;;;;;;;;;;;;;0.76;100.00;99532.34;5050504;28;19931;-59
2023/03/09 05:57:11;;;;;;;;;;;;;;;0.75;100.00;99542.41;5048701;28;19925;-59
2023/03/09 05:59:37;;;;;;;;;;;;;;;0.74;100.00;99554.22;5041378;28;20319;-59
2023/03/09 06:02:02;;;;;;;;;;;;;;;0.73;100.00;99570.19;5047966;28;19924;-60
2023/03/09 06:04:28;;;;;;;;;;;;;;;0.73;100.00;99572.72;5042953;28;20377;-59
2023/03/09 06:06:53;;;;;;;;;;;;;;;0.74;100.00;99566.84;5049908;28;19921;-59
2023/03/09 06:09:18;;;;;;;;;;;;;;;0.76;100.00;99571.97;5043436;28;19932;-59
2023/03/09 06:11:44;;;;;;;;;;;;;;;0.79;100.00;99567.06;5049568;28;20015;-59
2023/03/09 06:14:09;;;;;;;;;;;;;;;0.77;100.00;99563.59;5047898;28;19917;-59
2023/03/09 06:16:34;;;;;;;;;;;;;;;0.78;100.00;99570.38;5046819;28;20276;-59
2023/03/09 06:18:59;;;;;;;;;;;;;;;0.79;100.00;99574.66;5048969;28;19928;-59
2023/03/09 06:21:25;;;;;;;;;;;;;;;0.79;100.00;99584.78;5049160;28;19928;-61
2023/03/09 06:23:52;;;;;;;;;;;;;;;0.79;100.00;99588.19;5048728;28;19920;-59
2023/03/09 06:26:17;;;;;;;;;;;;;;;0.79;100.00;99583.13;5044010;28;19920;-60
2023/03/09 06:28:44;;;;;;;;;;;;;;;0.82;100.00;99595.03;5050238;28;19935;-59
2023/03/09 06:31:12;;;;;;;;;;;;;;;0.82;100.00;99605.16;5044869;28;19921;-59
2023/03/09 06:33:37;;;;;;;;;;;;;;;0.84;100.00;99613.69;5027526;28;20292;-59
2023/03/09 06:36:03;;;;;;;;;;;;;;;0.87;100.00;99616.38;5044921;28;19929;-59
2023/03/09 06:38:28;;;;;;;;;;;;;;;0.87;100.00;99623.97;5047235;28;19928;-60
2023/03/09 06:40:54;;;;;;;;;;;;;;;0.88;100.00;99619.75;5047469;28;19932;-61
2023/03/09 06:43:19;;;;;;;;;;;;;;;0.89;100.00;99627.41;5050292;28;20390;-59
2023/03/09 06:45:45;;;;;;;;;;;;;;;0.91;100.00;99625.84;5046432;28;20458;-59
2023/03/09 06:48:10;;;;;;;;;;;;;;;0.93;100.00;99616.66;5047917;28;19924;-58
2023/03/09 06:50:36;;;;;;;;;;;;;;;0.91;100.00;99620.78;5044149;28;19948;-61
2023/03/09 06:53:01;;;;;;;;;;;;;;;0.91;100.00;99620.78;5047029;28;19928;-59
2023/03/09 06:55:26;;;;;;;;;;;;;;;0.90;100.00;99628.28;5047138;28;20003;-59
2023/03/09 06:57:51;;;;;;;;;;;;;;;0.90;100.00;99653.59;5045813;28;19968;-59
2023/03/09 07:00:17;;;;;;;;;;;;;;;0.92;100.00;99652.88;5044929;28;19920;-59
2023/03/09 07:02:42;;;;;;;;;;;;;;;0.94;100.00;99665.59;5046110;28;20028;-59
2023/03/09 07:05:08;;;;;;;;;;;;;;;0.93;100.00;99674.00;5048228;28;19921;-59
2023/03/09 07:07:34;;;;;;;;;;;;;;;0.94;100.00;99671.53;5048923;28;19928;-59
2023/03/09 07:09:59;;;;;;;;;;;;;;;0.96;100.00;99669.06;5049234;28;19927;-59
2023/03/09 07:12:24;;;;;;;;;;;;;;;0.97;100.00;99684.34;5046642;28;19944;-59
2023/03/09 07:14:49;;;;;;;;;;;;;;;0.99;100.00;99705.53;5048347;28;19935;-59
2023/03/09 07:17:15;;;;;;;;;;;;;;;1.00;100.00;99712.31;5048047;28;20021;-59
2023/03/09 07:19:40;;;;;;;;;;;;;;;1.02;100.00;99714.91;5048253;28;19974;-59
2023/03/09 07:22:06;;;;;;;;;;;;;;;1.04;100.00;99723.47;5046782;28;19916;-59
2023/03/09 07:24:34;;;;;;;;;;;;;;;1.06;100.00;99735.38;5047255;28;19917;-59
2023/03/09 07:26:59;;;;;;;;;;;;;;;1.07;100.00;99733.72;5047581;28;20292;-59
2023/03/09 07:29:24;;;;;;;;;;;;;;;1.10;100.00;99720.38;5047613;28;20011;-59
2023/03/09 07:31:49;;;;;;;;;;;;;;;1.11;100.00;99711.97;5051204;28;20466;-62
2023/03/09 07:34:15;;;;;;;;;;;;;;;1.14;100.00;99718.03;5048675;28;19935;-59
2023/03/09 07:36:40;;;;;;;;;;;;;;;1.13;100.00;99728.94;5046612;28;19928;-59
2023/03/09 07:39:05;;;;;;;;;;;;;;;1.13;100.00;99743.28;5045419;28;19943;-59
2023/03/09 07:41:30;;;;;;;;;;;;;;;1.15;100.00;99751.81;5045174;28;19921;-59
2023/03/09 07:43:57;;;;;;;;;;;;;;;1.19;100.00;99752.03;5046820;28;20385;-59
2023/03/09 07:46:22;;;;;;;;;;;;;;;1.22;100.00;99748.78;5046936;28;19940;-60
2023/03/09 07:48:47;;;;;;;;;;;;;;;1.24;100.00;99742.13;5047160;28;19921;-59
2023/03/09 07:51:13;;;;;;;;;;;;;;;1.25;100.00;99739.66;5047218;28;19991;-59
2023/03/09 07:53:39;;;;;;;;;;;;;;;1.27;100.00;99734.66;5047421;28;19928;-59
2023/03/09 07:56:05;;;;;;;;;;;;;;;1.28;100.00;99731.34;5046180;28;20324;-59
2023/03/09 07:58:31;;;;;;;;;;;;;;;1.31;100.00;99749.22;5042621;28;20003;-59
2023/03/09 08:00:57;;;;;;;;;;;;;;;1.33;100.00;99755.19;5044362;28;20011;-59
2023/03/09 08:03:22;;;;;;;;;;;;;;;1.34;100.00;99765.44;5046863;28;20009;-58
2023/03/09 08:05:49;;;;;;;;;;;;;;;1.37;100.00;99764.69;5051368;28;19935;-59
2023/03/09 08:08:14;;;;;;;;;;;;;;;1.37;100.00;99759.63;5049517;28;19917;-59
2023/03/09 08:10:40;;;;;;;;;;;;;;;1.40;100.00;99761.44;5051710;28;19947;-59
2023/03/09 08:13:05;;;;;;;;;;;;;;;1.43;100.00;99770.03;5050248;28;20302;-59
2023/03/09 08:15:31;;;;;;;;;;;;;;;1.49;100.00;99784.66;5049889;28;19929;-59
2023/03/09 08:17:56;;;;;;;;;;;;;;;1.53;100.00;99800.09;5048416;28;19917;-59
2023/03/09 08:20:21;;;;;;;;;;;;;;;1.55;100.00;99803.56;5049316;28;19924;-58
2023/03/09 08:22:46;;;;;;;;;;;;;;;1.57;100.00;99799.41;5047634;28;19921;-59
2023/03/09 08:25:12;;;;;;;;;;;;;;;1.65;100.00;99798.94;5050010;28;19921;-59
2023/03/09 08:27:39;;;;;;;;;;;;;;;1.70;100.00;99789.84;5048848;28;19921;-59
2023/03/09 08:30:05;;;;;;;;;;;;;;;1.76;100.00;99793.56;5050802;28;19920;-59
2023/03/09 08:32:30;;;;;;;;;;;;;;;1.82;100.00;99798.91;5038324;28;20313;-59
2023/03/09 08:34:56;;;;;;;;;;;;;;;1.88;100.00;99803.34;5049918;28;19939;-59
2023/03/09 08:37:21;;;;;;;;;;;;;;;1.90;100.00;99799.25;5048234;28;19995;-59
2023/03/09 08:39:46;;;;;;;;;;;;;;;1.92;100.00;99811.97;5051870;28;19921;-59
2023/03/09 08:42:12;;;;;;;;;;;;;;;1.96;100.00;99819.81;5052464;28;19931;-59
2023/03/09 08:44:37;;;;;;;;;;;;;;;2.02;100.00;99812.47;5051445;28;19940;-59
2023/03/09 08:47:02;;;;;;;;;;;;;;;2.05;100.00;99815.13;5050039;28;19924;-59
2023/03/09 08:49:27;;;;;;;;;;;;;;;2.07;100.00;99818.63;5050174;28;19956;-59
2023/03/09 08:51:53;;;;;;;;;;;;;;;2.09;100.00;99819.56;5050373;28;20422;-59
2023/03/09 08:54:18;;;;;;;;;;;;;;;2.12;100.00;99819.72;5042864;28;19924;-58
2023/03/09 08:56:43;;;;;;;;;;;;;;;2.14;100.00;99813.03;5049695;28;19935;-58
2023/03/09 08:59:09;;;;;;;;;;;;;;;2.18;100.00;99815.69;5048740;28;20030;-57
2023/03/09 09:01:34;;;;;;;;;;;;;;;2.24;100.00;99821.03;5051538;28;19916;-57
2023/03/09 09:03:59;;;;;;;;;;;;;;;2.24;100.00;99831.19;5051053;28;20051;-57
2023/03/09 09:06:25;;;;;;;;;;;;;;;2.23;100.00;99845.53;5049113;28;20422;-57
2023/03/09 09:08:50;;;;;;;;;;;;;;;2.25;100.00;99841.41;5051440;28;20361;-56
2023/03/09 09:11:16;;;;;;;;;;;;;;;2.25;100.00;99845.63;5050647;28;19916;-57
2023/03/09 09:13:42;;;;;;;;;;;;;;;2.23;100.00;99850.59;5051284;28;19921;-57
2023/03/09 09:16:08;;;;;;;;;;;;;;;2.21;100.00;99857.28;5051480;28;19920;-57
2023/03/09 09:18:34;;;;;;;;;;;;;;;2.23;100.00;99868.34;5042916;28;20031;-57
2023/03/09 09:21:07;;;;;;;;;;;;;;;2.27;100.00;99872.78;5050528;28;19964;-57
2023/03/09 09:23:33;;;;;;;;;;;;;;;2.26;100.00;99878.66;5050904;28;20391;-57
2023/03/09 09:25:58;;;;;;;;;;;;;;;2.27;100.00;99877.84;5046456;28;19929;-60
2023/03/09 09:28:24;;;;;;;;;;;;;;;2.26;100.00;99873.59;5036068;28;19921;-57
2023/03/09 09:30:52;;;;;;;;;;;;;;;2.27;100.00;99856.69;5044132;28;20263;-57
2023/03/09 09:33:18;;;;;;;;;;;;;;;2.30;100.00;99864.41;5049570;28;19925;-57
2023/03/09 09:35:53;;;;;;;;;;;;;;;2.38;100.00;99856.38;5051613;28;19932;-57
2023/03/09 09:38:18;;;;;;;;;;;;;;;2.42;100.00;99857.34;5049647;28;20309;-57
2023/03/09 09:40:43;;;;;;;;;;;;;;;2.50;100.00;99852.66;5049995;28;19925;-57
2023/03/09 09:43:09;;;;;;;;;;;;;;;2.54;100.00;99851.97;5045973;28;20412;-58
2023/03/09 09:45:35;;;;;;;;;;;;;;;2.59;100.00;99855.56;5049059;28;19921;-56
2023/03/09 09:48:03;;;;;;;;;;;;;;;2.67;100.00;99872.03;5048710;28;19920;-59
2023/03/09 09:50:49;;;;;;;;;;;;;;;2.72;100.00;99872.19;5046787;28;19921;-57
2023/03/09 09:53:43;;;;;;;;;;;;;;;2.73;100.00;99884.06;5048819;28;20008;-56
2023/03/09 09:56:10;;;;;;;;;;;;;;;2.67;100.00;99882.16;4980331;28;19922;-52
2023/03/09 09:58:42;;;;;;;;;;;;;;;2.61;100.00;99885.31;5049459;28;19913;-57
2023/03/09 10:01:17;;;;;;;;;;;;;;;2.61;100.00;99884.44;5047043;28;20286;-57
2023/03/09 10:03:45;;;;;;;;;;;;;;;2.60;100.00;99888.63;5046161;28;19912;-57
2023/03/09 10:06:18;;;;;;;;;;;;;;;2.59;100.00;99898.72;5048207;28;19956;-57
2023/03/09 10:08:45;;;;;;;;;;;;;;;2.62;100.00;99899.72;5050117;28;19912;-59
2023/03/09 10:11:13;;;;;;;;;;;;;;;2.62;100.00;99886.16;5047845;28;19924;-57
2023/03/09 10:13:47;;;;;;;;;;;;;;;2.64;100.00;99887.97;5050154;28;19951;-57
2023/03/09 10:16:22;;;;;;;;;;;;;;;2.75;100.00;99892.66;5047874;28;19921;-57
2023/03/09 10:18:50;;;;;;;;;;;;;;;2.77;100.00;99896.13;5048300;28;19986;-56
2023/03/09 10:21:22;;;;;;;;;;;;;;;2.77;100.00;99889.38;5048598;28;20011;-57
2023/03/09 10:23:47;;;;;;;;;;;;;;;2.78;100.00;99895.31;5049987;28;19921;-57
2023/03/09 10:26:31;;;;;;;;;;;;;;;2.83;100.00;99904.00;5048022;28;19970;-56
2023/03/09 10:29:01;;;;;;;;;;;;;;;2.85;100.00;99895.66;5048295;28;19979;-56
2023/03/09 10:31:36;;;;;;;;;;;;;;;2.86;100.00;99887.25;5043292;28;19925;-57
2023/03/09 10:34:13;;;;;;;;;;;;;;;2.89;100.00;99878.88;5047051;28;19921;-56
2023/03/09 10:36:45;;;;;;;;;;;;;;;2.87;100.00;99875.41;5048743;28;19964;-57
2023/03/09 10:39:12;;;;;;;;;;;;;;;2.89;100.00;99871.25;5048241;28;20405;-56
2023/03/09 10:41:39;;;;;;;;;;;;;;;2.94;100.00;99875.72;5044392;28;19916;-56
2023/03/09 10:44:04;;;;;;;;;;;;;;;3.01;100.00;99892.09;5046641;28;19920;-57
2023/03/09 10:46:30;;;;;;;;;;;;;;;3.06;100.00;99898.25;5048422;28;19927;-56
2023/03/09 10:49:15;;;;;;;;;;;;;;;3.08;100.00;99891.53;5046197;28;19925;-57
2023/03/09 10:51:52;;;;;;;;;;;;;;;3.12;100.00;99880.72;5048049;28;19924;-56
2023/03/09 10:54:24;;;;;;;;;;;;;;;3.22;100.00;99887.94;5044084;28;19916;-56
2023/03/09 10:56:49;;;;;;;;;;;;;;;3.34;100.00;99891.78;5046293;28;19970;-57
2023/03/09 10:59:16;;;;;;;;;;;;;;;3.43;100.00;99899.78;5047700;28;19917;-57
2023/03/09 11:01:46;;;;;;;;;;;;;;;3.50;100.00;99899.22;5047154;28;20450;-57
2023/03/09 11:04:23;;;;;;;;;;;;;;;3.49;100.00;99894.94;5047904;28;19916;-57
2023/03/09 11:06:50;;;;;;;;;;;;;;;3.45;100.00;99890.53;5049341;28;20369;-56
2023/03/09 11:09:27;;;;;;;;;;;;;;;3.45;100.00;99877.81;5048653;28;19938;-57
2023/03/09 11:12:05;;;;;;;;;;;;;;;3.49;100.00;99872.94;5047792;28;19921;-57
2023/03/09 11:14:31;;;;;;;;;;;;;;;3.47;99.86;99866.94;5046564;28;20333;-57
2023/03/09 11:16:59;;;;;;;;;;;;;;;3.42;100.00;99877.72;5048356;28;19920;-56
2023/03/09 11:19:25;;;;;;;;;;;;;;;3.45;100.00;99883.75;5048693;28;19912;-56
2023/03/09 11:21:56;;;;;;;;;;;;;;;3.49;100.00;99879.69;5047326;28;20282;-57
2023/03/09 11:24:23;;;;;;;;;;;;;;;3.49;100.00;99883.09;5046344;28;19917;-56
2023/03/09 11:26:54;;;;;;;;;;;;;;;3.53;100.00;99889.19;5047120;28;20279;-56
2023/03/09 11:29:24;;;;;;;;;;;;;;;3.57;100.00;99885.94;5047714;28;19912;-56
2023/03/09 11:31:49;;;;;;;;;;;;;;;3.67;100.00;99884.63;5044397;28;19925;-56
2023/03/09 11:34:25;;;;;;;;;;;;;;;3.63;100.00;99880.22;5047311;28;20345;-56
2023/03/09 11:36:58;;;;;;;;;;;;;;;3.64;100.00;99882.84;5048106;28;19940;-56
2023/03/09 11:39:30;;;;;;;;;;;;;;;3.61;100.00;99880.19;5052051;28;19916;-56
2023/03/09 11:41:57;;;;;;;;;;;;;;;3.62;100.00;99887.00;5051663;28;20301;-56
2023/03/09 11:44:30;;;;;;;;;;;;;;;3.64;100.00;99882.84;5051108;28;20231;-57
2023/03/09 11:46:58;;;;;;;;;;;;;;;3.65;100.00;99874.41;5047356;28;19917;-56
2023/03/09 11:49:25;;;;;;;;;;;;;;;3.68;100.00;99876.19;5051593;28;20373;-56
2023/03/09 11:51:51;;;;;;;;;;;;;;;3.71;100.00;99877.22;5053666;28;19996;-56
2023/03/09 11:54:17;;;;;;;;;;;;;;;3.74;100.00;99879.84;5042947;28;20427;-57
2023/03/09 11:56:44;;;;;;;;;;;;;;;3.74;100.00;99873.91;5034954;28;19920;-57
2023/03/09 11:59:15;;;;;;;;;;;;;;;3.74;100.00;99879.84;5050453;28;20374;-57
2023/03/09 12:01:59;;;;;;;;;;;;;;;3.72;100.00;99878.94;5052353;28;19923;-56
2023/03/09 12:04:25;;;;;;;;;;;;;;;3.63;100.00;99876.00;5047448;28;19913;-57
2023/03/09 12:06:53;;;;;;;;;;;;;;;3.60;100.00;99875.91;5052785;28;20011;-56
2023/03/09 12:09:28;;;;;;;;;;;;;;;3.60;100.00;99870.81;5048709;28;20384;-56
2023/03/09 12:12:00;;;;;;;;;;;;;;;3.60;100.00;99868.28;5051247;28;20416;-56
2023/03/09 12:14:28;;;;;;;;;;;;;;;3.63;100.00;99858.22;5050874;28;20400;-57
2023/03/09 12:16:55;;;;;;;;;;;;;;;3.68;100.00;99864.34;5049148;28;20193;-62
2023/03/09 12:19:22;;;;;;;;;;;;;;;3.69;100.00;99866.09;5046711;28;20046;-59
2023/03/09 12:21:50;;;;;;;;;;;;;;;3.70;100.00;99857.69;5047395;28;19967;-60
2023/03/09 12:24:26;;;;;;;;;;;;;;;3.72;100.00;99861.13;5046224;28;20400;-59
2023/03/09 12:27:03;;;;;;;;;;;;;;;3.76;100.00;99873.19;5046373;28;20554;-64
2023/03/09 12:29:31;;;;;;;;;;;;;;;3.80;100.00;99871.59;5046137;28;19917;-60
2023/03/09 12:32:16;;;;;;;;;;;;;;;3.82;100.00;99869.09;5047147;28;19924;-59
2023/03/09 12:34:42;;;;;;;;;;;;;;;3.83;100.00;99853.94;5047094;28;20380;-59
2023/03/09 12:37:26;;;;;;;;;;;;;;;3.82;100.00;99847.09;5048248;28;19917;-59
2023/03/09 12:39:57;;;;;;;;;;;;;;;3.83;100.00;99831.06;5044413;28;19971;-59
2023/03/09 12:42:28;;;;;;;;;;;;;;;3.85;100.00;99826.00;5050385;28;19960;-59
2023/03/09 12:44:56;;;;;;;;;;;;;;;3.88;100.00;99818.47;5050455;28;19948;-59
2023/03/09 12:47:31;;;;;;;;;;;;;;;3.87;100.00;99824.38;5051174;28;19920;-58